CYDF/YDF METAR and TAF weather

Enter ICAO airport designator
Station Type Date Time Source
CYDF METAR 2021/09/23 23:00 UTC NOAA

CYDF 232300Z 03008KT 270V050 12SM -RA SCT013 OVC021 14/12 A3020 RMK SC4SC4 WSHFT 2254 PRESRR SLP228


Station Type Date Time Source
CYDF Decoded METAR 2021/09/23 23:00 UTC NOAA

Deer Lake, Nfld., Canada (CYDF) 49-13N 057-24W 22M
Sep 23, 2021 - 07:00 PM EDT / 2021.09.23 2300 UTC
Wind: from the NNE (030 degrees) at 9 MPH (8 KT) (direction variable):0
Visibility: 12 mile(s):0
Sky conditions: overcast
Weather: light rain
Temperature: 57 F (14 C)
Dew Point: 53 F (12 C)
Relative Humidity: 87%
Pressure (altimeter): 30.2 in. Hg (1022 hPa)
Pressure tendency: rising rapidly
ob: CYDF 232300Z 03008KT 270V050 12SM -RA SCT013 OVC021 14/12 A3020 RMK SC4SC4 WSHFT 2254 PRESRR SLP228
cycle: 23

Station Type Date Time Source
CYDF TAF 2021/09/23 14:39 UTC NOAA

TAF CYDF 231338Z 2314/2402 25008KT P6SM SCT015
TEMPO 2314/2322 BKN015
FM232200 25010KT P6SM SCT015 BKN040
TEMPO 2322/2402 5SM -RA BR BKN015 BKN040
BECMG 2400/2402 04008G18KT
RMK NXT FCST BY 232000Z

Example: see airport list